.
WxDataArchive / Data Records for 2011-02-22
2011-02-21 February 2011 2011-02-23

Data Records for Tuesday, 22 February 2011

Time	Temp	Chill	HIndex	Humid	Dewpt	 Wind 	HiWind	WindDir	Rain 	Barom 
-----	----	-----	------	-----	-----	------	------	-------	-----	----- 
00:00	17.5	17.5	17.5	88	14.6	3	9	90	0.00	30.011 
00:05	17.3	9.8	17.3	87	14.1	5	13	112	0.00	30.011 
00:10	17.3	17.3	17.3	88	14.4	3	10	90	0.00	30.011 
00:15	17.2	17.2	17.2	88	14.3	3	9	112	0.00	30.014 
00:20	17.2	11.0	17.2	87	14.0	4	12	112	0.00	30.014 
00:25	17.2	17.2	17.2	88	14.3	3	9	90	0.00	30.014 
00:30	17.2	11.0	17.2	88	14.3	4	11	90	0.00	30.013 
00:35	17.2	17.2	17.2	88	14.3	3	13	112	0.00	30.013 
00:40	17.2	11.0	17.2	88	14.3	4	10	112	0.00	30.013 
00:45	17.0	10.7	17.0	88	14.1	4	12	90	0.00	30.012 
00:50	17.2	17.2	17.2	88	14.3	3	7	90	0.00	30.012 
00:55	17.2	17.2	17.2	88	14.3	3	9	90	0.00	30.012 
01:00	17.0	10.7	17.0	88	14.1	4	10	90	0.00	30.023 
01:05	17.0	17.0	17.0	88	14.1	3	7	90	0.00	30.023 
01:10	17.0	17.0	17.0	88	14.1	3	7	90	0.00	30.023 
01:15	17.2	17.2	17.2	88	14.3	2	5	90	0.00	30.035 
01:20	17.0	17.0	17.0	88	14.1	2	7	90	0.00	30.035 
01:25	17.0	17.0	17.0	88	14.1	2	7	135	0.00	30.035 
01:30	17.2	17.2	17.2	88	14.3	2	7	90	0.00	30.044 
01:35	17.0	17.0	17.0	88	14.1	2	6	90	0.00	30.044 
01:40	17.0	17.0	17.0	87	13.8	3	6	90	0.00	30.044 
01:45	17.0	17.0	17.0	87	13.8	2	6	90	0.00	30.045 
01:50	17.0	17.0	17.0	88	14.1	2	7	90	0.00	30.045 
01:55	17.0	17.0	17.0	88	14.1	2	6	90	0.00	30.045 
02:00	17.0	17.0	17.0	88	14.1	1	4	90	0.00	30.045 
02:05	17.0	17.0	17.0	88	14.1	2	5	90	0.00	30.045 
02:10	17.0	17.0	17.0	88	14.1	2	5	90	0.00	30.045 
02:15	17.0	17.0	17.0	88	14.1	2	5	112	0.00	30.041 
02:20	16.9	16.9	16.9	88	14.0	1	7	90	0.00	30.041 
02:25	16.9	16.9	16.9	88	14.0	3	7	90	0.00	30.041 
02:30	16.9	16.9	16.9	88	14.0	3	7	90	0.00	30.030 
02:35	16.9	16.9	16.9	88	14.0	2	6	90	0.00	30.030 
02:40	16.9	16.9	16.9	88	14.0	3	7	90	0.00	30.030 
02:45	16.9	10.6	16.9	88	14.0	4	9	90	0.00	30.027 
02:50	16.9	10.6	16.9	88	14.0	4	8	90	0.00	30.027 
02:55	16.9	16.9	16.9	88	14.0	1	5	112	0.00	30.027 
03:00	16.9	16.9	16.9	88	14.0	3	9	90	0.00	30.031 
03:05	16.9	16.9	16.9	88	14.0	3	7	90	0.00	30.031 
03:10	16.9	16.9	16.9	88	14.0	2	6	90	0.00	30.031 
03:15	16.9	16.9	16.9	88	14.0	1	5	90	0.00	30.040 
03:20	16.9	16.9	16.9	88	14.0	2	6	90	0.00	30.040 
03:25	16.9	16.9	16.9	88	14.0	2	5	90	0.00	30.040 
03:30	16.9	16.9	16.9	88	14.0	1	4	90	0.00	30.047 
03:35	16.9	16.9	16.9	88	14.0	0	2	90	0.00	30.047 
03:40	17.0	17.0	17.0	88	14.1	1	3	90	0.00	30.047 
03:45	17.0	17.0	17.0	88	14.1	1	4	90	0.00	30.050 
03:50	17.0	17.0	17.0	88	14.1	2	5	112	0.00	30.050 
03:55	17.0	17.0	17.0	88	14.1	1	4	90	0.00	30.050 
04:00	17.0	17.0	17.0	88	14.1	1	5	112	0.00	30.045 
04:05	17.0	17.0	17.0	88	14.1	1	4	112	0.00	30.045 
04:10	17.0	17.0	17.0	88	14.1	1	5	90	0.00	30.045 
04:15	17.0	17.0	17.0	88	14.1	1	4	90	0.00	30.047 
04:20	17.0	17.0	17.0	88	14.1	1	4	90	0.00	30.047 
04:25	17.0	17.0	17.0	88	14.1	2	6	90	0.00	30.047 
04:30	16.9	16.9	16.9	88	14.0	2	4	90	0.00	30.049 
04:35	16.9	16.9	16.9	88	14.0	2	5	90	0.00	30.049 
04:40	16.9	16.9	16.9	88	14.0	1	4	112	0.00	30.049 
04:45	16.9	16.9	16.9	88	14.0	2	4	90	0.00	30.049 
04:50	16.9	16.9	16.9	88	14.0	3	7	90	0.00	30.049 
04:55	16.9	16.9	16.9	88	14.0	2	7	90	0.00	30.049 
05:00	16.9	16.9	16.9	88	14.0	2	6	90	0.00	30.058 
05:05	16.9	16.9	16.9	87	13.7	2	10	112	0.00	30.058 
05:10	16.7	16.7	16.7	87	13.5	1	6	112	0.00	30.058 
05:15	16.7	16.7	16.7	87	13.5	2	5	112	0.00	30.067 
05:20	16.5	16.5	16.5	87	13.3	1	6	90	0.00	30.067 
05:25	16.5	16.5	16.5	87	13.3	1	4	90	0.00	30.067 
05:30	16.5	16.5	16.5	87	13.3	2	6	90	0.00	30.071 
05:35	16.5	16.5	16.5	87	13.3	1	4	68	0.00	30.071 
05:40	16.5	16.5	16.5	87	13.3	2	5	90	0.00	30.071 
05:45	16.5	16.5	16.5	87	13.3	2	6	90	0.00	30.080 
05:50	16.5	16.5	16.5	87	13.3	1	4	90	0.00	30.080 
05:55	16.5	16.5	16.5	87	13.3	1	3	112	0.00	30.080 
06:00	16.5	16.5	16.5	87	13.3	1	6	90	0.00	30.095 
06:05	16.5	16.5	16.5	87	13.3	1	5	90	0.00	30.095 
06:10	16.5	16.5	16.5	87	13.3	2	4	90	0.00	30.095 
06:15	16.5	16.5	16.5	87	13.3	1	4	90	0.00	30.100 
06:20	16.5	16.5	16.5	87	13.3	1	4	112	0.00	30.100 
06:25	16.5	16.5	16.5	87	13.3	1	6	68	0.00	30.100 
06:30	16.5	16.5	16.5	87	13.3	1	4	135	0.00	30.110 
06:35	16.5	16.5	16.5	87	13.3	1	6	90	0.00	30.110 
06:40	16.5	16.5	16.5	87	13.3	1	3	90	0.00	30.110 
06:45	16.4	16.4	16.4	87	13.2	1	5	45	0.00	30.118 
06:50	16.4	16.4	16.4	87	13.2	1	5	112	0.00	30.118 
06:55	16.4	16.4	16.4	87	13.2	1	4	112	0.00	30.118 
07:00	16.4	16.4	16.4	87	13.2	1	4	90	0.00	30.127 
07:05	16.4	16.4	16.4	87	13.2	1	3	90	0.00	30.127 
07:10	16.4	16.4	16.4	87	13.2	1	5	90	0.00	30.127 
07:15	16.2	16.2	16.2	87	13.0	1	8	135	0.00	30.129 
07:20	16.2	16.2	16.2	87	13.0	1	3	112	0.00	30.129 
07:25	16.2	16.2	16.2	87	13.0	1	4	45	0.00	30.129 
07:30	16.1	16.1	16.1	87	12.9	1	4	0	0.00	30.139 
07:35	16.1	16.1	16.1	87	12.9	1	3	45	0.00	30.139 
07:40	16.1	16.1	16.1	87	12.9	1	4	90	0.00	30.139 
07:45	16.1	16.1	16.1	87	12.9	1	3	90	0.00	30.144 
07:50	16.1	16.1	16.1	87	12.9	1	6	90	0.00	30.144 
07:55	16.1	16.1	16.1	87	12.9	1	4	112	0.00	30.144 
08:00	16.2	16.2	16.2	87	13.0	2	7	112	0.00	30.150 
08:05	16.2	16.2	16.2	87	13.0	0	2	90	0.00	30.150 
08:10	16.2	16.2	16.2	87	13.0	1	5	90	0.00	30.150 
08:15	16.4	16.4	16.4	87	13.2	1	4	112	0.00	30.161 
08:20	16.4	16.4	16.4	87	13.2	2	7	90	0.00	30.161 
08:25	16.4	16.4	16.4	87	13.2	1	5	90	0.00	30.161 
08:30	16.5	16.5	16.5	87	13.3	1	4	90	0.00	30.162 
08:35	16.5	16.5	16.5	87	13.3	1	4	45	0.00	30.162 
08:40	16.5	16.5	16.5	87	13.3	1	4	90	0.00	30.162 
08:45	16.7	16.7	16.7	87	13.5	1	4	68	0.00	30.162 
08:50	16.9	16.9	16.9	87	13.7	1	4	68	0.00	30.162 
08:55	16.9	16.9	16.9	87	13.7	1	4	90	0.00	30.162 
09:00	17.0	17.0	17.0	87	13.8	1	3	90	0.00	30.163 
09:05	17.0	17.0	17.0	87	13.8	1	5	68	0.00	30.163 
09:10	17.0	17.0	17.0	87	13.8	1	4	90	0.00	30.163 
09:15	17.0	17.0	17.0	87	13.8	1	5	90	0.00	30.173 
09:20	17.2	17.2	17.2	87	14.0	1	3	90	0.00	30.173 
09:25	17.2	17.2	17.2	87	14.0	1	7	90	0.00	30.173 
09:30	17.3	17.3	17.3	87	14.1	1	3	68	0.00	30.177 
09:35	17.3	17.3	17.3	87	14.1	1	4	90	0.00	30.177 
09:40	17.3	17.3	17.3	87	14.1	1	6	90	0.00	30.177 
09:45	17.5	17.5	17.5	87	14.3	2	5	112	0.00	30.190 
09:50	17.5	17.5	17.5	87	14.3	1	5	90	0.00	30.190 
09:55	17.5	17.5	17.5	87	14.3	2	7	90	0.00	30.190 
10:00	17.7	17.7	17.7	87	14.5	1	4	90	0.00	30.193 
10:05	17.7	17.7	17.7	87	14.5	1	6	90	0.00	30.193 
10:10	17.8	17.8	17.8	87	14.6	2	5	90	0.00	30.193 
10:15	18.0	18.0	18.0	87	14.8	1	4	90	0.00	30.200 
10:20	18.1	18.1	18.1	87	14.9	1	3	90	0.00	30.200 
10:25	18.3	18.3	18.3	87	15.1	1	5	90	0.00	30.200 
10:30	18.4	18.4	18.4	87	15.2	1	4	45	0.00	30.209 
10:35	18.4	18.4	18.4	87	15.2	1	4	158	0.00	30.209 
10:40	18.6	18.6	18.6	87	15.4	1	3	112	0.00	30.209 
10:45	18.8	18.8	18.8	87	15.6	2	5	112	0.00	30.217 
10:50	18.9	18.9	18.9	87	15.7	2	5	112	0.00	30.217 
10:55	19.2	19.2	19.2	87	16.0	1	5	22	0.00	30.217 
11:00	19.5	19.5	19.5	87	16.3	1	3	112	0.00	30.222 
11:05	19.7	19.7	19.7	86	16.2	1	4	112	0.00	30.222 
11:10	19.7	19.7	19.7	86	16.2	2	4	112	0.00	30.222 
11:15	19.7	19.7	19.7	86	16.2	1	5	45	0.00	30.222 
11:20	19.9	19.9	19.9	86	16.4	2	4	90	0.00	30.222 
11:25	20.2	20.2	20.2	86	16.7	2	7	68	0.00	30.222 
11:30	20.0	20.0	20.0	86	16.5	3	6	112	0.00	30.227 
11:35	20.0	20.0	20.0	86	16.5	2	6	112	0.00	30.227 
11:40	20.2	20.2	20.2	86	16.7	2	6	112	0.00	30.227 
11:45	20.0	20.0	20.0	85	16.2	3	7	90	0.00	30.233 
11:50	20.2	20.2	20.2	86	16.7	2	5	112	0.00	30.233 
11:55	20.3	20.3	20.3	86	16.8	2	5	90	0.00	30.233 
12:00	20.3	20.3	20.3	85	16.5	2	9	90	0.00	30.235 
12:05	20.3	20.3	20.3	85	16.5	3	10	90	0.00	30.235 
12:10	20.5	20.5	20.5	85	16.7	3	7	112	0.00	30.235 
12:15	20.5	20.5	20.5	85	16.7	3	10	112	0.00	30.237 
12:20	20.5	14.8	20.5	85	16.7	4	10	112	0.00	30.237 
12:25	20.5	20.5	20.5	85	16.7	3	7	90	0.00	30.237 
12:30	20.5	20.5	20.5	85	16.7	3	6	112	0.00	30.238 
12:35	20.6	20.6	20.6	85	16.8	2	5	112	0.00	30.238 
12:40	21.0	21.0	21.0	85	17.2	2	5	90	0.00	30.238 
12:45	21.4	21.4	21.4	85	17.6	2	9	68	0.00	30.241 
12:50	21.3	15.7	21.3	84	17.2	4	11	112	0.00	30.241 
12:55	21.6	21.6	21.6	85	17.8	2	5	112	0.00	30.241 
13:00	22.1	22.1	22.1	84	18.0	1	5	90	0.00	30.245 
13:05	22.5	22.5	22.5	85	18.7	2	4	90	0.00	30.245 
13:10	22.7	22.7	22.7	84	18.6	2	6	112	0.00	30.245 
13:15	23.2	23.2	23.2	84	19.1	1	4	68	0.00	30.250 
13:20	23.2	23.2	23.2	84	19.1	2	5	112	0.00	30.250 
13:25	23.0	23.0	23.0	83	18.6	1	4	112	0.00	30.250 
13:30	22.7	22.7	22.7	83	18.3	1	5	45	0.00	30.252 
13:35	22.5	22.5	22.5	84	18.4	1	6	45	0.00	30.252 
13:40	22.5	22.5	22.5	84	18.4	1	7	90	0.00	30.252 
13:45	22.5	22.5	22.5	83	18.1	2	5	112	0.00	30.252 
13:50	22.4	22.4	22.4	83	18.0	2	5	90	0.00	30.252 
13:55	22.5	22.5	22.5	84	18.4	1	4	45	0.00	30.252 
14:00	22.7	22.7	22.7	84	18.6	1	4	112	0.00	30.258 
14:05	22.7	22.7	22.7	84	18.6	2	6	112	0.00	30.258 
14:10	22.9	22.9	22.9	84	18.8	1	5	90	0.00	30.258 
14:15	23.0	23.0	23.0	84	18.9	1	4	90	0.00	30.252 
14:20	23.0	23.0	23.0	83	18.6	2	6	112	0.00	30.252 
14:25	22.9	22.9	22.9	84	18.8	1	4	90	0.00	30.252 
14:30	22.9	22.9	22.9	83	18.5	3	9	90	0.00	30.253 
14:35	23.0	23.0	23.0	84	18.9	1	5	90	0.00	30.253 
14:40	23.0	23.0	23.0	84	18.9	2	5	90	0.00	30.253 
14:45	23.2	23.2	23.2	84	19.1	1	4	90	0.00	30.253 
14:50	23.5	23.5	23.5	84	19.4	1	5	90	0.00	30.253 
14:55	23.5	23.5	23.5	84	19.4	1	6	22	0.00	30.253 
15:00	23.8	23.8	23.8	84	19.7	1	4	45	0.00	30.256 
15:05	23.8	23.8	23.8	84	19.7	1	5	68	0.00	30.256 
15:10	23.6	23.6	23.6	83	19.2	1	6	68	0.00	30.256 
15:15	23.6	23.6	23.6	83	19.2	2	6	112	0.00	30.262 
15:20	23.5	23.5	23.5	83	19.1	1	5	90	0.00	30.262 
15:25	23.6	23.6	23.6	83	19.2	2	7	90	0.00	30.262 
15:30	23.6	23.6	23.6	83	19.2	2	4	90	0.00	30.264 
15:35	23.5	23.5	23.5	83	19.1	1	4	112	0.00	30.264 
15:40	23.6	23.6	23.6	83	19.2	1	4	68	0.00	30.264 
15:45	23.8	23.8	23.8	83	19.4	0	2	68	0.00	30.266 
15:50	23.9	23.9	23.9	82	19.2	1	5	68	0.00	30.266 
15:55	23.9	23.9	23.9	82	19.2	1	3	22	0.00	30.266 
16:00	23.9	23.9	23.9	82	19.2	1	4	90	0.00	30.268 
16:05	23.9	23.9	23.9	82	19.2	0	2	90	0.00	30.268 
16:10	23.8	23.8	23.8	82	19.1	1	5	90	0.00	30.268 
16:15	23.8	23.8	23.8	82	19.1	1	3	45	0.00	30.272 
16:20	23.8	23.8	23.8	81	18.8	1	4	90	0.00	30.272 
16:25	23.5	23.5	23.5	81	18.5	1	7	112	0.00	30.272 
16:30	23.2	23.2	23.2	81	18.3	2	6	112	0.00	30.282 
16:35	22.9	22.9	22.9	81	18.0	3	6	90	0.00	30.282 
16:40	22.9	22.9	22.9	81	18.0	1	3	90	0.00	30.282 
16:45	23.0	23.0	23.0	82	18.3	1	4	90	0.00	30.284 
16:50	23.2	23.2	23.2	82	18.5	1	5	90	0.00	30.284 
16:55	23.2	23.2	23.2	82	18.5	1	4	90	0.00	30.284 
17:00	22.9	22.9	22.9	81	18.0	2	5	90	0.00	30.290 
17:05	22.7	22.7	22.7	81	17.8	1	4	45	0.00	30.290 
17:10	22.5	22.5	22.5	81	17.6	1	7	45	0.00	30.290 
17:15	22.5	22.5	22.5	81	17.6	2	5	90	0.00	30.299 
17:20	22.4	22.4	22.4	82	17.8	1	4	90	0.00	30.299 
17:25	22.4	22.4	22.4	82	17.8	1	3	90	0.00	30.299 
17:30	22.4	22.4	22.4	82	17.8	1	4	22	0.00	30.304 
17:35	22.4	22.4	22.4	82	17.8	1	3	68	0.00	30.304 
17:40	22.2	22.2	22.2	82	17.6	1	4	68	0.00	30.304 
17:45	22.1	22.1	22.1	82	17.5	0	3	135	0.00	30.313 
17:50	21.9	21.9	21.9	82	17.3	0	3	45	0.00	30.313 
17:55	21.8	21.8	21.8	82	17.2	0	1	45	0.00	30.313 
18:00	21.8	21.8	21.8	82	17.2	0	3	45	0.00	30.317 
18:05	21.8	21.8	21.8	82	17.2	0	2	45	0.00	30.317 
18:10	21.8	21.8	21.8	82	17.2	0	2	22	0.00	30.317 
18:15	21.6	21.6	21.6	82	17.0	0	1	22	0.00	30.320 
18:20	21.6	21.6	21.6	82	17.0	1	4	22	0.00	30.320 
18:25	21.4	21.4	21.4	82	16.8	0	3	22	0.00	30.320 
18:30	21.4	21.4	21.4	82	16.8	0	3	90	0.00	30.332 
18:35	21.3	21.3	21.3	82	16.7	0	3	90	0.00	30.332 
18:40	21.3	21.3	21.3	82	16.7	0	1	90	0.00	30.332 
18:45	21.1	21.1	21.1	82	16.5	1	3	90	0.00	30.335 
18:50	21.0	21.0	21.0	82	16.4	0	2	90	0.00	30.335 
18:55	21.0	21.0	21.0	82	16.4	0	4	90	0.00	30.335 
19:00	21.0	21.0	21.0	82	16.4	0	2	90	0.00	30.343 
19:05	20.8	20.8	20.8	82	16.2	0	1	90	0.00	30.343 
19:10	20.6	20.6	20.6	82	16.0	0	1	90	0.00	30.343 
19:15	20.6	20.6	20.6	82	16.0	0	1	90	0.00	30.348 
19:20	20.6	20.6	20.6	82	16.0	0	1	90	0.00	30.348 
19:25	20.5	20.5	20.5	82	15.9	0	1	90	0.00	30.348 
19:30	20.5	20.5	20.5	83	16.2	0	0	---	0.00	30.351 
19:35	20.3	20.3	20.3	83	16.0	0	1	90	0.00	30.351 
19:40	20.3	20.3	20.3	83	16.0	0	1	90	0.00	30.351 
19:45	20.3	20.3	20.3	83	16.0	0	1	90	0.00	30.351 
19:50	20.2	20.2	20.2	83	15.9	0	2	90	0.00	30.351 
19:55	20.2	20.2	20.2	83	15.9	0	2	90	0.00	30.351 
20:00	20.2	20.2	20.2	83	15.9	0	2	22	0.00	30.352 
20:05	20.2	20.2	20.2	83	15.9	0	3	112	0.00	30.352 
20:10	20.2	20.2	20.2	82	15.6	1	3	68	0.00	30.352 
20:15	20.2	20.2	20.2	82	15.6	0	2	68	0.00	30.352 
20:20	20.2	20.2	20.2	82	15.6	0	2	68	0.00	30.352 
20:25	20.0	20.0	20.0	82	15.4	0	4	112	0.00	30.352 
20:30	20.0	20.0	20.0	82	15.4	0	1	112	0.00	30.351 
20:35	20.0	20.0	20.0	82	15.4	1	3	112	0.00	30.351 
20:40	19.9	19.9	19.9	82	15.3	1	3	112	0.00	30.351 
20:45	19.9	19.9	19.9	82	15.3	0	1	112	0.00	30.353 
20:50	19.9	19.9	19.9	82	15.3	1	3	112	0.00	30.353 
20:55	19.9	19.9	19.9	82	15.3	1	3	112	0.00	30.353 
21:00	19.9	19.9	19.9	82	15.3	1	3	112	0.00	30.355 
21:05	19.7	19.7	19.7	82	15.1	1	5	112	0.00	30.355 
21:10	19.7	19.7	19.7	81	14.8	1	3	135	0.00	30.355 
21:15	19.4	19.4	19.4	81	14.5	1	4	68	0.00	30.355 
21:20	19.2	19.2	19.2	81	14.3	1	4	90	0.00	30.355 
21:25	18.9	18.9	18.9	81	14.1	1	3	90	0.00	30.355 
21:30	18.8	18.8	18.8	81	14.0	0	3	90	0.00	30.356 
21:35	18.4	18.4	18.4	82	13.8	0	1	90	0.00	30.356 
21:40	18.1	18.1	18.1	82	13.5	0	1	90	0.00	30.356 
21:45	17.8	17.8	17.8	82	13.3	0	2	90	0.00	30.349 
21:50	17.7	17.7	17.7	83	13.4	1	3	90	0.00	30.349 
21:55	17.5	17.5	17.5	83	13.2	0	1	90	0.00	30.349 
22:00	17.2	17.2	17.2	83	12.9	0	2	90	0.00	30.349 
22:05	17.0	17.0	17.0	83	12.7	0	1	90	0.00	30.349 
22:10	16.7	16.7	16.7	83	12.5	0	0	---	0.00	30.349 
22:15	16.4	16.4	16.4	83	12.2	0	0	---	0.00	30.347 
22:20	16.1	16.1	16.1	83	11.9	0	0	---	0.00	30.347 
22:25	15.7	15.7	15.7	84	11.7	0	0	---	0.00	30.347 
22:30	15.4	15.4	15.4	84	11.4	0	0	---	0.00	30.339 
22:35	15.1	15.1	15.1	84	11.2	0	0	---	0.00	30.339 
22:40	14.8	14.8	14.8	84	10.9	0	0	---	0.00	30.339 
22:45	14.4	14.4	14.4	84	10.5	0	0	---	0.00	30.343 
22:50	14.1	14.1	14.1	84	10.2	0	0	---	0.00	30.343 
22:55	14.0	14.0	14.0	84	10.1	0	0	---	0.00	30.343 
23:00	13.6	13.6	13.6	84	9.7	0	0	---	0.00	30.348 
23:05	13.5	13.5	13.5	84	9.6	0	0	---	0.00	30.348 
23:10	13.1	13.1	13.1	84	9.2	0	0	---	0.00	30.348 
23:15	12.9	12.9	12.9	84	9.0	0	0	---	0.00	30.354 
23:20	12.6	12.6	12.6	84	8.7	0	0	---	0.00	30.354 
23:25	12.4	12.4	12.4	84	8.5	0	0	---	0.00	30.354 
23:30	12.4	12.4	12.4	84	8.5	0	0	---	0.00	30.351 
23:35	12.1	12.1	12.1	84	8.2	0	0	---	0.00	30.351 
23:40	11.9	11.9	11.9	84	8.0	0	0	---	0.00	30.351 
23:45	11.7	11.7	11.7	84	7.8	0	0	---	0.00	30.349 
23:50	11.6	11.6	11.6	85	8.0	0	0	---	0.00	30.349 
23:55	11.4	11.4	11.4	85	7.8	0	0	---	0.00	30.349 

CoCoRaHS
IN-AL-39
A2 Web Hosting
Creative Commons License
GoDaddy
search engine by freefind advanced

loaded 2018-11-13 21:28:25 • last modified 2010-11-18 10:43:29
Privacy PolicyDisclaimer
• wx.awcolley.com is powered by PmWiki v.2002016 •
• all content (unless otherwise noted) © 2018 A W Colley